createdAt,value
2019-02-08T00:01:49.722Z,2.30
2019-02-08T00:04:19.739Z,2.20
2019-02-08T00:06:51.876Z,2.10
2019-02-08T00:09:21.680Z,2.30
2019-02-08T00:11:52.071Z,2.40
2019-02-08T00:14:22.129Z,2.40
2019-02-08T00:16:52.064Z,2.30
2019-02-08T00:19:22.165Z,2.20
2019-02-08T00:21:52.388Z,2.30
2019-02-08T00:24:22.349Z,2.40
2019-02-08T00:26:52.559Z,2.40
2019-02-08T00:29:22.686Z,2.40
2019-02-08T00:31:52.603Z,2.20
2019-02-08T00:34:22.527Z,2.10
2019-02-08T00:36:52.547Z,1.80
2019-02-08T00:39:22.572Z,1.70
2019-02-08T00:41:52.842Z,1.40
2019-02-08T00:44:23.017Z,1.50
2019-02-08T00:46:53.023Z,1.50
2019-02-08T00:57:01.081Z,0.80
2019-02-08T00:59:31.166Z,0.80
2019-02-08T01:02:01.852Z,1.00
2019-02-08T01:04:34.310Z,1.20
2019-02-08T01:07:04.325Z,1.40
2019-02-08T01:09:35.730Z,1.50
2019-02-08T01:12:06.149Z,1.60
2019-02-08T01:14:36.495Z,2.00
2019-02-08T01:17:06.989Z,2.00
2019-02-08T01:19:36.935Z,1.90
2019-02-08T01:22:07.047Z,1.80
2019-02-08T01:24:37.208Z,1.70
2019-02-08T01:27:07.278Z,1.70
2019-02-08T01:29:37.685Z,1.80
2019-02-08T01:32:07.977Z,1.70
2019-02-08T01:34:37.901Z,1.70
2019-02-08T01:37:08.027Z,1.70
2019-02-08T01:39:37.946Z,1.70
2019-02-08T01:42:08.187Z,1.70
2019-02-08T01:44:38.108Z,1.80
2019-02-08T01:47:08.246Z,1.90
2019-02-08T01:49:38.258Z,2.10
2019-02-08T01:52:08.208Z,2.30
2019-02-08T01:54:38.135Z,2.40
2019-02-08T01:57:08.117Z,2.50
2019-02-08T02:04:02.842Z,2.50
2019-02-08T02:07:10.129Z,2.60
2019-02-08T02:41:23.665Z,2.50
2019-02-08T02:43:53.616Z,2.50
2019-02-08T02:46:23.618Z,2.60
2019-02-08T03:07:00.878Z,2.30
2019-02-08T03:09:31.605Z,2.40
2019-02-08T03:12:01.572Z,2.30
2019-02-08T03:14:32.280Z,2.30
2019-02-08T03:17:02.201Z,2.30
2019-02-08T03:19:32.590Z,2.30
2019-02-08T03:22:02.487Z,2.50
2019-02-08T03:24:32.484Z,2.40
2019-02-08T03:34:15.384Z,2.50
2019-02-08T03:36:45.779Z,2.60
2019-02-08T03:39:15.750Z,2.60
2019-02-08T03:41:45.744Z,2.50
2019-02-08T03:44:15.802Z,2.40
2019-02-08T03:46:45.730Z,2.40
2019-02-08T03:49:16.357Z,2.40
2019-02-08T03:51:46.257Z,2.30
2019-02-08T03:54:21.201Z,2.30
2019-02-08T03:56:48.746Z,2.30
2019-02-08T03:59:18.716Z,2.40
2019-02-08T04:01:48.690Z,2.40
2019-02-08T04:04:18.790Z,2.50
2019-02-08T04:06:48.746Z,2.40
2019-02-08T04:09:18.659Z,2.30
2019-02-08T04:11:48.622Z,2.20
2019-02-08T04:18:10.870Z,2.30
2019-02-08T04:20:41.225Z,2.50
2019-02-08T04:23:11.195Z,2.30
2019-02-08T04:25:41.155Z,2.20
2019-02-08T04:28:11.204Z,2.40
2019-02-08T04:30:41.266Z,2.60
2019-02-08T04:33:11.306Z,2.80
2019-02-08T04:35:41.315Z,2.70
2019-02-08T04:38:11.612Z,2.70
2019-02-08T04:40:41.588Z,2.70
2019-02-08T04:43:11.720Z,2.70
2019-02-08T04:45:42.030Z,2.80
2019-02-08T04:48:12.005Z,2.70
2019-02-08T04:50:41.904Z,2.60
2019-02-08T04:57:03.655Z,2.50
2019-02-08T04:59:34.179Z,2.50
2019-02-08T05:02:04.496Z,2.40
2019-02-08T05:04:34.556Z,2.30
2019-02-08T05:07:04.521Z,2.30
2019-02-08T05:09:34.414Z,2.30
2019-02-08T05:12:04.321Z,2.30
2019-02-08T05:14:34.241Z,2.20
2019-02-08T05:17:04.308Z,2.30
2019-02-08T05:19:34.390Z,2.10
2019-02-08T05:22:04.398Z,2.10
2019-02-08T05:24:34.313Z,2.10
2019-02-08T05:27:04.246Z,2.10
2019-02-08T06:02:13.221Z,0.90
2019-02-08T06:04:43.618Z,0.70
2019-02-08T06:07:13.541Z,0.50
2019-02-08T06:09:43.449Z,0.30
2019-02-08T06:12:13.763Z,0.20
2019-02-08T06:14:43.756Z,0.20
2019-02-08T06:37:56.564Z,0.10
2019-02-08T06:40:27.073Z,0.10
2019-02-08T06:42:57.124Z,0.10
2019-02-08T06:45:28.163Z,0.20
2019-02-08T06:47:58.271Z,0.20
2019-02-08T06:50:28.518Z,0.20
2019-02-08T07:00:07.713Z,0.30
2019-02-08T07:02:51.425Z,0.30
2019-02-08T07:05:42.644Z,0.70
2019-02-08T07:08:23.132Z,1.00
2019-02-08T07:11:12.197Z,1.10
2019-02-08T07:14:10.376Z,1.20
2019-02-08T07:17:08.763Z,1.20
2019-02-08T07:19:49.133Z,1.20
2019-02-08T07:22:33.305Z,0.90
2019-02-08T07:25:20.625Z,1.00
2019-02-08T07:27:57.479Z,1.20
2019-02-08T07:30:55.067Z,1.10
2019-02-08T07:33:32.570Z,1.30
2019-02-08T07:36:15.025Z,1.20
2019-02-08T07:38:54.638Z,1.10
2019-02-08T07:41:55.148Z,1.10
2019-02-08T07:44:45.289Z,1.10
2019-02-08T08:05:53.378Z,1.70
2019-02-08T08:08:35.919Z,1.70
2019-02-08T10:07:16.569Z,6.70
2019-02-08T10:10:32.580Z,6.90
2019-02-08T10:13:50.627Z,6.90
2019-02-08T10:17:36.460Z,7.00
2019-02-08T10:21:14.079Z,7.00
2019-02-08T10:24:54.357Z,7.10
2019-02-08T11:53:34.983Z,8.80
2019-02-08T11:56:05.750Z,9.30
2019-02-08T11:58:35.901Z,9.40
2019-02-08T12:01:06.154Z,9.80
2019-02-08T12:11:28.007Z,9.70
2019-02-08T12:13:57.913Z,9.30
2019-02-08T12:16:27.838Z,9.40
2019-02-08T12:18:57.744Z,9.60
2019-02-08T12:21:27.856Z,9.80
2019-02-08T12:23:57.886Z,10.20
2019-02-08T12:26:28.506Z,10.40
2019-02-08T12:28:58.458Z,10.60
2019-02-08T12:31:28.402Z,10.50
2019-02-08T12:33:58.602Z,10.40
2019-02-08T12:36:28.531Z,10.40
2019-02-08T12:38:58.439Z,10.30
2019-02-08T12:45:19.991Z,10.20
2019-02-08T12:47:49.911Z,10.30
2019-02-08T12:50:20.271Z,10.30
2019-02-08T12:52:50.606Z,10.30
2019-02-08T12:55:20.857Z,10.50
2019-02-08T12:57:51.212Z,10.70
2019-02-08T13:00:21.860Z,10.30
2019-02-08T13:02:51.996Z,10.50
2019-02-08T13:05:22.315Z,10.80
2019-02-08T13:07:52.628Z,11.00
2019-02-08T13:10:24.234Z,11.00
2019-02-08T13:12:55.167Z,10.80
2019-02-08T13:21:32.688Z,11.10
2019-02-08T13:24:02.590Z,11.20
2019-02-08T13:26:32.565Z,11.20
2019-02-08T13:29:02.467Z,11.30
2019-02-08T13:31:32.359Z,11.50
2019-02-08T13:34:02.321Z,11.60
2019-02-08T13:36:32.234Z,11.60
2019-02-08T13:39:02.123Z,11.50
2019-02-08T13:41:32.118Z,11.40
2019-02-08T13:55:24.543Z,11.20
2019-02-08T13:57:54.593Z,11.30
2019-02-08T14:07:07.261Z,11.10
2019-02-08T14:09:37.147Z,11.00
2019-02-08T14:12:07.231Z,11.20
2019-02-08T14:14:37.217Z,11.40
2019-02-08T14:17:07.513Z,11.50
2019-02-08T14:19:37.471Z,11.40
2019-02-08T14:22:07.583Z,11.40
2019-02-08T14:24:37.621Z,11.40
2019-02-08T14:27:08.728Z,11.30
2019-02-08T14:29:38.726Z,11.20
2019-02-08T14:35:59.815Z,11.30
2019-02-08T14:38:29.943Z,11.40
2019-02-08T14:47:42.675Z,11.40
2019-02-08T14:50:17.664Z,11.30
2019-02-08T14:52:48.455Z,11.20
2019-02-08T14:55:18.945Z,11.00
2019-02-08T15:01:15.051Z,11.00
2019-02-08T15:03:45.024Z,10.90
2019-02-08T15:06:15.025Z,10.70
2019-02-08T15:08:45.404Z,10.60
2019-02-08T15:11:15.335Z,10.60
2019-02-08T15:13:45.498Z,10.70
2019-02-08T15:16:15.461Z,10.70
2019-02-08T15:18:45.352Z,10.50
2019-02-08T15:21:16.167Z,10.50
2019-02-08T15:23:46.067Z,10.50
2019-02-08T15:26:16.403Z,10.40
2019-02-08T15:28:46.375Z,10.10
2019-02-08T15:31:16.380Z,9.90
2019-02-08T15:33:46.293Z,9.70
2019-02-08T15:36:16.453Z,9.40
2019-02-08T15:38:46.347Z,9.40
2019-02-08T15:41:16.732Z,9.30
2019-02-08T15:43:47.239Z,9.10
2019-02-08T15:46:17.356Z,9.00
2019-02-08T15:52:19.323Z,8.90
2019-02-08T15:54:49.363Z,8.70
2019-02-08T15:57:19.601Z,8.60
2019-02-08T15:59:49.522Z,8.50
2019-02-08T16:02:19.562Z,8.40
2019-02-08T16:04:50.292Z,8.20
2019-02-08T16:07:20.194Z,8.10
2019-02-08T16:09:50.084Z,8.00
2019-02-08T16:12:20.108Z,7.80
2019-02-08T16:18:44.014Z,7.40
2019-02-08T16:21:14.105Z,7.30
2019-02-08T16:23:44.010Z,7.00
2019-02-08T16:26:14.915Z,6.90
2019-02-08T16:32:36.137Z,6.80
2019-02-08T16:35:07.590Z,6.50
2019-02-08T16:37:37.566Z,6.40
2019-02-08T16:43:33.870Z,6.00
2019-02-08T16:46:04.100Z,6.00
2019-02-08T17:04:45.799Z,5.50
2019-02-08T17:07:15.696Z,5.40
2019-02-08T17:09:45.585Z,5.50
2019-02-08T17:15:48.218Z,5.40
2019-02-08T17:18:18.134Z,5.40
2019-02-08T17:20:48.706Z,5.40
2019-02-08T17:23:18.686Z,5.50
2019-02-08T17:25:48.902Z,5.60
2019-02-08T17:28:18.793Z,5.60
2019-02-08T17:30:48.770Z,5.70
2019-02-08T17:33:18.698Z,5.60
2019-02-08T17:35:48.641Z,5.60
2019-02-08T17:38:19.389Z,5.70
2019-02-08T17:40:49.667Z,5.70
2019-02-08T17:43:20.034Z,5.70
2019-02-08T17:45:49.976Z,5.60
2019-02-08T17:48:20.017Z,5.80
2019-02-08T17:50:49.925Z,5.90
2019-02-08T17:53:20.039Z,6.00
2019-02-08T18:14:27.374Z,5.30
2019-02-08T18:16:57.627Z,5.10
2019-02-08T18:19:27.914Z,5.10
2019-02-08T18:21:58.190Z,4.80
2019-02-08T18:24:28.294Z,4.60
2019-02-08T18:26:58.241Z,4.40
2019-02-08T18:29:29.047Z,4.30
2019-02-08T18:31:58.928Z,4.30
2019-02-08T18:38:20.219Z,4.00
2019-02-08T18:40:50.242Z,3.60
2019-02-08T18:43:20.235Z,3.50
2019-02-08T18:45:50.196Z,3.50
2019-02-08T18:48:20.671Z,3.40
2019-02-08T18:50:53.006Z,3.30
2019-02-08T18:53:22.977Z,3.30
2019-02-08T18:55:52.891Z,3.20
2019-02-08T18:58:22.861Z,3.20
2019-02-08T19:04:45.503Z,3.10
2019-02-08T19:07:15.484Z,3.20
2019-02-08T19:09:45.488Z,3.20
2019-02-08T19:12:15.418Z,3.00
2019-02-08T19:14:46.386Z,3.00
2019-02-08T19:17:16.272Z,3.00
2019-02-08T19:19:46.870Z,2.90
2019-02-08T19:22:16.863Z,2.90
2019-02-08T19:24:46.827Z,2.80
2019-02-08T19:27:16.711Z,2.80
2019-02-08T19:29:46.672Z,2.90
2019-02-08T19:32:16.890Z,3.00
2019-02-08T19:34:46.971Z,2.90
2019-02-08T19:37:16.857Z,2.90
2019-02-08T19:39:47.022Z,2.90
2019-02-08T19:42:17.255Z,2.90
2019-02-08T19:44:47.212Z,2.90
2019-02-08T19:47:17.299Z,2.90
2019-02-08T19:49:47.324Z,2.80
2019-02-08T19:52:17.363Z,2.80
2019-02-08T19:54:47.988Z,2.80
2019-02-08T19:57:17.896Z,2.80
2019-02-08T19:59:47.804Z,2.90
2019-02-08T20:02:17.766Z,2.80
2019-02-08T20:04:47.787Z,2.80
2019-02-08T20:07:17.771Z,2.70
2019-02-08T20:09:50.500Z,2.80
2019-02-08T20:12:20.645Z,2.80
2019-02-08T20:14:50.565Z,2.80
2019-02-08T20:17:20.660Z,3.00
2019-02-08T20:19:50.611Z,2.90
2019-02-08T20:22:20.907Z,2.80
2019-02-08T20:24:50.855Z,2.60
2019-02-08T20:27:20.881Z,2.60
2019-02-08T20:29:50.876Z,2.60
2019-02-08T20:32:20.793Z,2.60
2019-02-08T20:34:50.729Z,2.70
2019-02-08T20:37:20.922Z,2.80
2019-02-08T20:39:50.881Z,2.80
2019-02-08T20:42:20.780Z,2.70
2019-02-08T20:44:50.705Z,2.60
2019-02-08T20:47:20.667Z,2.70
2019-02-08T20:49:50.647Z,2.80
2019-02-08T20:52:21.207Z,2.70
2019-02-08T20:54:51.253Z,2.80
2019-02-08T20:57:21.655Z,3.00
2019-02-08T20:59:51.756Z,2.90
2019-02-08T21:02:22.334Z,2.80
2019-02-08T21:04:53.348Z,2.70
2019-02-08T21:07:23.414Z,2.70
2019-02-08T21:09:53.833Z,2.70
2019-02-08T21:12:24.276Z,2.70
2019-02-08T21:14:54.201Z,2.70
2019-02-08T21:17:24.348Z,2.60
2019-02-08T21:19:54.269Z,2.50
2019-02-08T21:22:24.184Z,2.60
2019-02-08T21:24:54.335Z,2.50
2019-02-08T21:27:24.587Z,2.50
2019-02-08T21:29:54.745Z,2.50
2019-02-08T21:36:16.155Z,2.40
2019-02-08T21:38:46.054Z,2.40
2019-02-08T21:41:16.335Z,2.50
2019-02-08T21:43:46.317Z,2.40
2019-02-08T21:50:01.474Z,2.20
2019-02-08T21:52:31.567Z,2.10
2019-02-08T22:01:23.031Z,2.10
2019-02-08T22:03:53.799Z,2.10
2019-02-08T22:06:23.804Z,2.00
2019-02-08T22:08:53.848Z,1.90
2019-02-08T22:11:23.739Z,1.80
2019-02-08T22:13:53.659Z,1.60
2019-02-08T22:16:23.956Z,1.50
2019-02-08T22:18:53.858Z,1.50
2019-02-08T22:21:23.754Z,1.50
2019-02-08T22:23:53.675Z,1.40
2019-02-08T22:26:24.241Z,1.40
2019-02-08T22:28:54.160Z,1.40
2019-02-08T22:31:24.853Z,1.30
2019-02-08T22:33:55.018Z,1.30
2019-02-08T22:36:25.093Z,1.30
2019-02-08T22:38:54.999Z,1.30
2019-02-08T22:41:24.900Z,1.30
2019-02-08T22:43:54.912Z,1.20
2019-02-08T22:46:24.949Z,1.10
2019-02-08T22:48:54.907Z,1.00
2019-02-08T22:51:25.107Z,1.20
2019-02-08T22:53:55.155Z,1.30
2019-02-08T22:56:25.122Z,1.30
2019-02-08T22:58:55.002Z,1.30
2019-02-08T23:01:36.699Z,1.30
2019-02-08T23:04:08.007Z,1.10
2019-02-08T23:06:44.615Z,1.10
2019-02-08T23:09:20.976Z,1.10
2019-02-08T23:11:51.012Z,1.10
2019-02-08T23:14:21.095Z,1.00
2019-02-08T23:16:51.421Z,0.80
2019-02-08T23:19:21.450Z,0.70
2019-02-08T23:21:52.712Z,0.70
2019-02-08T23:24:22.603Z,0.70
2019-02-08T23:26:52.631Z,0.70
2019-02-08T23:29:29.658Z,0.80
2019-02-08T23:31:54.420Z,1.20
2019-02-08T23:34:24.302Z,1.10
2019-02-08T23:36:54.496Z,1.20
2019-02-08T23:39:24.856Z,1.70
2019-02-08T23:41:54.785Z,1.80
2019-02-08T23:44:24.739Z,2.00
2019-02-08T23:46:54.671Z,1.80
2019-02-08T23:49:25.392Z,1.80
2019-02-08T23:51:55.327Z,1.80
2019-02-08T23:54:25.231Z,1.80
2019-02-08T23:56:55.227Z,1.50
2019-02-08T23:59:25.133Z,1.30
